Time;durP1;ratioP1;P1;durP2;ratioP2;P2;SDS_P1;SDS_P2;PMS_P1;PMS_P2;Temp;Humidity;BMP_temperature;BMP_pressure;BME280_temperature;BME280_humidity;BME280_pressure;Samples;Min_cycle;Max_cycle;Signal;HPM_P1;HPM_P2
2021/12/08 00:00:20;;;;;;;58.95;30.90;;;;;;;-6.59;73.66;101432.28;1780869;80;21130;-75
2021/12/08 00:02:48;;;;;;;68.55;33.55;;;;;;;-6.58;73.67;101437.95;1781483;80;21522;-74
2021/12/08 00:05:16;;;;;;;62.88;32.38;;;;;;;-6.58;73.64;101439.23;1781251;80;21047;-74
2021/12/08 00:07:43;;;;;;;63.68;33.00;;;;;;;-6.57;73.72;101433.34;1780742;80;21054;-74
2021/12/08 00:13:03;;;;;;;63.87;33.53;;;;;;;-6.59;73.39;101430.63;1707203;83;21156;-73
2021/12/08 00:15:40;;;;;;;69.90;34.33;;;;;;;-6.60;73.42;101433.05;1788875;80;21075;-74
2021/12/08 00:18:11;;;;;;;78.28;35.00;;;;;;;-6.60;73.53;101429.20;1788862;80;21059;-74
2021/12/08 00:20:38;;;;;;;71.15;34.00;;;;;;;-6.60;73.54;101425.37;1786575;79;21091;-74
2021/12/08 00:23:06;;;;;;;72.45;36.77;;;;;;;-6.56;73.74;101423.65;1788812;80;22032;-74
2021/12/08 00:25:33;;;;;;;71.53;36.88;;;;;;;-6.52;73.71;101419.38;1789136;80;21095;-74
2021/12/08 00:27:59;;;;;;;81.85;37.55;;;;;;;-6.56;73.56;101419.42;1788799;80;21574;-74
2021/12/08 00:30:27;;;;;;;69.42;36.63;;;;;;;-6.56;73.56;101423.27;1788704;80;21091;-73
2021/12/08 00:32:55;;;;;;;73.90;34.78;;;;;;;-6.54;73.58;101421.77;1768815;80;21140;-74
2021/12/08 00:35:22;;;;;;;74.42;37.20;;;;;;;-6.52;73.66;101424.49;1731686;82;21793;-73
2021/12/08 00:37:49;;;;;;;74.30;33.60;;;;;;;-6.52;73.60;101432.17;1783304;79;21072;-74
2021/12/08 00:40:17;;;;;;;71.25;36.13;;;;;;;-6.51;73.69;101437.84;1783526;80;21062;-74
2021/12/08 00:42:45;;;;;;;72.92;35.75;;;;;;;-6.47;73.90;101430.63;1783571;80;21049;-74
2021/12/08 00:45:12;;;;;;;71.60;35.75;;;;;;;-6.39;73.90;101429.23;1783643;80;21049;-74
2021/12/08 00:47:39;;;;;;;74.60;37.05;;;;;;;-6.36;73.85;101419.28;1783473;80;21726;-74
2021/12/08 00:50:08;;;;;;;82.80;37.78;;;;;;;-6.33;73.80;101415.77;1783299;80;21584;-74
2021/12/08 00:52:35;;;;;;;77.67;37.35;;;;;;;-6.36;73.67;101417.66;1783422;80;21080;-74
2021/12/08 00:55:02;;;;;;;81.78;39.55;;;;;;;-6.41;73.68;101419.20;1783404;80;21069;-74
2021/12/08 00:57:32;;;;;;;86.65;39.13;;;;;;;-6.41;73.89;101416.65;1783518;80;21081;-73
2021/12/08 01:00:00;;;;;;;89.62;40.12;;;;;;;-6.37;74.02;101412.36;1783638;79;21265;-73
2021/12/08 01:02:27;;;;;;;76.37;37.10;;;;;;;-6.36;74.03;101407.41;1783618;80;21603;-73
2021/12/08 01:04:54;;;;;;;94.97;44.10;;;;;;;-6.36;74.09;101411.25;1783472;80;21103;-74
2021/12/08 01:07:20;;;;;;;89.42;40.92;;;;;;;-6.39;74.19;101408.74;1783396;80;21615;-74
2021/12/08 01:09:47;;;;;;;101.60;44.03;;;;;;;-6.36;74.49;101413.81;1783190;80;21072;-74
2021/12/08 01:12:14;;;;;;;97.35;43.80;;;;;;;-6.29;74.62;101416.25;1783422;80;21753;-73
2021/12/08 01:14:40;;;;;;;92.15;43.70;;;;;;;-6.18;74.87;101409.64;1783198;80;21073;-73
2021/12/08 01:17:09;;;;;;;91.85;43.52;;;;;;;-6.11;74.87;101404.39;1783369;80;21218;-73
2021/12/08 01:19:36;;;;;;;105.58;44.65;;;;;;;-6.00;74.98;101398.19;1783376;79;21077;-73
2021/12/08 01:22:03;;;;;;;105.27;43.02;;;;;;;-5.92;74.99;101396.87;1783692;80;21105;-74
2021/12/08 01:24:31;;;;;;;95.57;44.63;;;;;;;-5.85;74.98;101399.69;1783522;80;21753;-73
2021/12/08 01:26:58;;;;;;;106.90;47.45;;;;;;;-5.80;75.03;101393.37;1783445;80;21096;-74
2021/12/08 01:29:28;;;;;;;102.05;44.10;;;;;;;-5.73;75.07;101400.89;1783518;80;21579;-74
2021/12/08 01:31:53;;;;;;;104.58;46.08;;;;;;;-5.66;75.16;101390.89;1782897;80;21089;-74
2021/12/08 01:34:21;;;;;;;101.33;45.45;;;;;;;-5.60;75.11;101388.92;1787685;79;21054;-74
2021/12/08 01:36:49;;;;;;;94.50;42.23;;;;;;;-5.56;75.17;101391.42;1728668;81;21656;-74
2021/12/08 01:39:16;;;;;;;100.45;45.67;;;;;;;-5.51;75.16;101390.22;1756698;81;21513;-74
2021/12/08 01:41:42;;;;;;;101.55;47.40;;;;;;;-5.51;75.12;101390.22;1787787;79;21190;-74
2021/12/08 01:46:55;;;;;;;93.92;41.88;;;;;;;-5.45;75.17;101381.84;1756538;81;21061;-76
2021/12/08 01:49:22;;;;;;;97.65;44.20;;;;;;;-5.43;75.18;101373.02;1787783;80;21868;-73
2021/12/08 01:51:49;;;;;;;88.55;41.08;;;;;;;-5.43;75.18;101361.09;1756430;81;21073;-74
2021/12/08 01:54:16;;;;;;;78.72;39.48;;;;;;;-5.45;75.12;101355.30;1756577;81;21132;-74
2021/12/08 01:56:42;;;;;;;84.00;38.05;;;;;;;-5.50;75.11;101344.56;1787831;79;21097;-74
2021/12/08 01:59:13;;;;;;;85.77;42.05;;;;;;;-5.52;75.18;101343.16;1728756;81;21102;-74
2021/12/08 02:01:43;;;;;;;90.70;41.83;;;;;;;-5.56;75.33;101337.55;1756931;81;21276;-74
2021/12/08 02:04:11;;;;;;;84.25;41.50;;;;;;;-5.53;75.43;101338.77;1787680;80;21105;-74
2021/12/08 02:06:42;;;;;;;85.30;38.90;;;;;;;-5.56;75.37;101338.45;1756817;81;21046;-74
2021/12/08 02:09:11;;;;;;;81.60;39.73;;;;;;;-5.60;75.43;101344.04;1756525;81;21125;-74
2021/12/08 02:11:39;;;;;;;85.83;39.33;;;;;;;-5.61;75.49;101347.38;1787879;80;21132;-74
2021/12/08 02:14:09;;;;;;;79.55;37.33;;;;;;;-5.61;75.52;101339.69;1756569;81;23081;-74
2021/12/08 02:16:34;;;;;;;82.50;38.90;;;;;;;-5.66;75.42;101341.78;1755684;81;21066;-74
2021/12/08 02:19:01;;;;;;;67.95;32.28;;;;;;;-5.71;75.52;101337.84;1787800;80;22224;-74
2021/12/08 02:21:38;;;;;;;82.92;37.83;;;;;;;-5.73;75.63;101326.53;1756583;80;21061;-74
2021/12/08 02:24:12;;;;;;;74.17;35.20;;;;;;;-5.76;75.63;101327.89;1756538;81;21112;-74
2021/12/08 02:26:42;;;;;;;70.78;35.30;;;;;;;-5.76;75.72;101333.02;1787960;80;21766;-74
2021/12/08 02:29:16;;;;;;;75.67;35.17;;;;;;;-5.79;75.72;101331.45;1756799;81;21038;-74
2021/12/08 02:31:55;;;;;;;74.72;36.00;;;;;;;-5.81;75.73;101334.24;1727293;80;21078;-73
2021/12/08 02:48:00;;;;;;;70.28;33.38;;;;;;;-5.73;76.19;101317.94;1780160;80;21540;-73
2021/12/08 02:50:34;;;;;;;71.00;34.65;;;;;;;-5.58;76.29;101330.98;1780301;80;21055;-73
2021/12/08 02:53:05;;;;;;;73.12;33.28;;;;;;;-5.54;76.21;101327.06;1780464;80;21761;-73
2021/12/08 02:55:30;;;;;;;68.22;33.55;;;;;;;-5.55;76.15;101331.30;1779997;80;21054;-74
2021/12/08 02:57:57;;;;;;;68.20;33.40;;;;;;;-5.53;76.11;101332.35;1780259;80;21063;-74
2021/12/08 03:00:26;;;;;;;68.83;33.78;;;;;;;-5.51;76.20;101321.86;1780718;80;21062;-74
2021/12/08 03:02:56;;;;;;;60.67;27.98;;;;;;;-5.46;76.17;101323.61;1780528;80;21121;-74
2021/12/08 03:05:23;;;;;;;57.13;28.20;;;;;;;-5.43;76.13;101323.89;1780564;80;21823;-74
2021/12/08 03:07:50;;;;;;;57.73;29.12;;;;;;;-5.40;76.15;101319.06;1780431;80;21043;-74
2021/12/08 03:10:20;;;;;;;63.78;29.65;;;;;;;-5.33;76.20;101330.46;1780381;80;21023;-73
2021/12/08 03:12:47;;;;;;;62.13;29.87;;;;;;;-5.25;76.15;101329.03;1780759;80;21050;-74
2021/12/08 03:15:14;;;;;;;59.18;29.42;;;;;;;-5.21;76.12;101326.89;1780708;79;21074;-74
2021/12/08 03:17:40;;;;;;;61.20;29.48;;;;;;;-5.14;76.06;101339.95;1780365;80;22461;-74
2021/12/08 03:20:10;;;;;;;56.85;28.77;;;;;;;-5.07;76.12;101333.34;1780368;80;21330;-74
2021/12/08 03:22:42;;;;;;;61.65;31.10;;;;;;;-5.05;75.88;101339.52;1781006;80;21126;-74
2021/12/08 03:25:08;;;;;;;66.30;30.82;;;;;;;-5.01;75.96;101346.80;1779961;80;21075;-74
2021/12/08 03:27:39;;;;;;;61.55;30.60;;;;;;;-4.97;75.87;101341.19;1780692;80;21580;-74
2021/12/08 03:30:23;;;;;;;61.33;30.20;;;;;;;-4.92;75.81;101344.18;1779988;80;21789;-74
2021/12/08 03:32:42;;;;;;;60.78;28.70;;;;;;;-4.86;75.83;101346.43;1778502;80;21062;-73
2021/12/08 03:35:16;;;;;;;59.00;30.80;;;;;;;-4.79;75.76;101339.84;1780183;80;21007;-73
2021/12/08 03:37:45;;;;;;;60.40;29.10;;;;;;;-4.78;75.64;101343.85;1779921;79;21046;-74
2021/12/08 03:40:20;;;;;;;60.92;30.35;;;;;;;-4.73;75.61;101342.63;1780415;80;21611;-73
2021/12/08 03:42:47;;;;;;;57.33;28.30;;;;;;;-4.71;75.56;101351.38;1780283;80;23079;-73
2021/12/08 03:45:18;;;;;;;54.23;25.05;;;;;;;-4.65;75.52;101347.21;1780444;79;21074;-73
2021/12/08 03:47:46;;;;;;;60.23;30.70;;;;;;;-4.68;75.36;101357.19;1780308;80;21062;-74
2021/12/08 03:50:16;;;;;;;53.70;27.60;;;;;;;-4.70;75.32;101352.28;1780747;80;21050;-73
2021/12/08 03:52:45;;;;;;;55.55;27.20;;;;;;;-4.71;75.32;101357.81;1780654;80;21058;-74
2021/12/08 03:55:14;;;;;;;64.20;29.45;;;;;;;-4.75;75.18;101358.63;1780381;80;21762;-73
2021/12/08 03:57:41;;;;;;;56.65;29.15;;;;;;;-4.81;75.21;101356.38;1780596;80;21074;-74
2021/12/08 04:00:11;;;;;;;56.60;26.95;;;;;;;-4.85;75.17;101356.86;1780730;80;21070;-74
2021/12/08 04:02:38;;;;;;;60.15;28.90;;;;;;;-4.99;75.17;101340.49;1780524;80;21074;-74
2021/12/08 04:05:09;;;;;;;57.43;28.92;;;;;;;-4.93;75.21;101361.26;1780053;79;21083;-74
2021/12/08 04:07:45;;;;;;;52.62;26.52;;;;;;;-4.98;75.18;101363.75;1779787;80;21685;-73
2021/12/08 04:10:16;;;;;;;52.45;27.00;;;;;;;-5.02;75.21;101349.20;1779524;80;21075;-74
2021/12/08 04:12:38;;;;;;;57.48;28.35;;;;;;;-5.01;75.33;101349.71;1779465;79;21141;-74
2021/12/08 04:15:07;;;;;;;50.10;26.68;;;;;;;-5.04;75.30;101346.88;1780192;80;21058;-74
2021/12/08 04:17:40;;;;;;;52.45;25.92;;;;;;;-5.08;75.31;101339.25;1780576;80;21376;-74
2021/12/08 04:20:15;;;;;;;52.25;27.13;;;;;;;-5.08;75.36;101341.81;1780585;80;22739;-74
2021/12/08 04:22:44;;;;;;;57.08;27.82;;;;;;;-5.12;75.32;101335.87;1779354;80;21560;-74
2021/12/08 04:25:15;;;;;;;61.85;29.45;;;;;;;-5.14;75.33;101335.72;1780618;80;21062;-74
2021/12/08 04:27:42;;;;;;;64.45;27.90;;;;;;;-5.15;75.38;101337.73;1780616;80;21579;-74
2021/12/08 04:30:17;;;;;;;58.10;26.73;;;;;;;-5.13;75.46;101334.94;1780464;80;21089;-74
2021/12/08 04:32:44;;;;;;;53.70;26.70;;;;;;;-5.13;75.44;101333.66;1780815;80;21777;-73
2021/12/08 04:35:11;;;;;;;54.08;24.60;;;;;;;-5.15;75.40;101332.99;1780323;80;21588;-74
2021/12/08 04:37:45;;;;;;;55.73;26.87;;;;;;;-5.14;75.42;101330.58;1780237;80;21070;-74
2021/12/08 04:43:41;;;;;;;59.70;29.15;;;;;;;-5.23;75.50;101314.29;1780634;80;21149;-74
2021/12/08 04:45:28;;;;;;;48.75;26.50;;;;;;;-5.16;75.37;101328.25;1774788;80;21986;-74
2021/12/08 04:48:10;;;;;;;50.50;26.12;;;;;;;-5.16;75.40;101333.73;1779204;80;21134;-74
2021/12/08 04:50:32;;;;;;;55.43;27.67;;;;;;;-5.17;75.38;101339.64;1776713;80;21090;-73
2021/12/08 04:52:59;;;;;;;48.58;25.48;;;;;;;-5.19;75.45;101338.20;1777875;80;22283;-74
2021/12/08 05:04:13;;;;;;;48.75;25.75;;;;;;;-5.35;75.37;101333.26;1780707;80;21179;-74
2021/12/08 05:06:51;;;;;;;;;;;;;;;-5.34;75.52;101332.48;1781474;80;21050;-74
2021/12/08 05:09:26;;;;;;;46.40;25.60;;;;;;;-5.38;75.39;101334.62;1781677;79;20207;-75
2021/12/08 05:11:58;;;;;;;47.20;24.95;;;;;;;-5.52;75.50;101303.75;1779426;80;22616;-74
2021/12/08 05:14:31;;;;;;;44.80;24.67;;;;;;;-5.42;75.61;101314.52;1780770;80;21094;-75
2021/12/08 05:17:02;;;;;;;52.45;26.73;;;;;;;-5.44;75.56;101307.06;1778852;80;21695;-77
2021/12/08 05:19:30;;;;;;;49.53;26.33;;;;;;;-5.45;75.60;101315.14;1781063;80;21545;-77
2021/12/08 05:22:08;;;;;;;48.73;26.23;;;;;;;-5.49;75.61;101316.50;1781325;80;21066;-77
2021/12/08 05:24:39;;;;;;;45.43;24.35;;;;;;;-5.49;75.63;101313.04;1781307;80;21994;-81
2021/12/08 05:27:11;;;;;;;41.73;23.40;;;;;;;-5.54;75.54;101310.00;1780905;80;21066;-77
2021/12/08 05:29:52;;;;;;;42.90;23.40;;;;;;;-5.58;75.53;101313.42;1775960;80;21140;-78
2021/12/08 05:32:21;;;;;;;42.60;24.15;;;;;;;-5.63;75.49;101312.98;1721609;83;21136;-82
2021/12/08 05:34:50;;;;;;;42.33;23.18;;;;;;;-5.62;75.63;101311.31;1694608;84;21180;-88
2021/12/08 05:37:19;;;;;;;41.28;23.50;;;;;;;-5.63;75.61;101310.42;1720056;83;22735;-82
2021/12/08 05:39:49;;;;;;;40.25;21.93;;;;;;;-5.66;75.52;101313.95;1674876;83;21050;-80
2021/12/08 05:42:20;;;;;;;40.40;21.42;;;;;;;-5.71;75.54;101303.22;1722725;83;21114;-80
2021/12/08 05:44:47;;;;;;;36.45;21.70;;;;;;;-5.70;75.58;101309.28;1722522;83;21106;-80
2021/12/08 05:47:18;;;;;;;44.20;23.27;;;;;;;-5.74;75.58;101304.23;1722188;83;21113;-73
2021/12/08 05:49:46;;;;;;;39.30;22.17;;;;;;;-5.75;75.66;101304.07;1697452;83;21809;-72
2021/12/08 05:52:14;;;;;;;42.55;23.12;;;;;;;-5.74;75.68;101305.52;1721515;83;21284;-76
2021/12/08 05:54:45;;;;;;;42.90;23.18;;;;;;;-5.75;75.68;101295.09;1721679;83;21102;-75
2021/12/08 05:57:28;;;;;;;44.23;23.10;;;;;;;-5.76;75.74;101293.27;1721820;83;21411;-75
2021/12/08 05:59:55;;;;;;;43.17;22.67;;;;;;;-5.76;75.79;101287.80;1636372;86;21148;-84
2021/12/08 06:02:29;;;;;;;41.92;23.52;;;;;;;-5.73;75.80;101285.50;1632857;86;21835;-81
2021/12/08 06:04:56;;;;;;;38.98;22.20;;;;;;;-5.74;75.84;101289.23;1658340;85;21100;-81
2021/12/08 06:07:25;;;;;;;46.30;24.85;;;;;;;-5.76;75.73;101287.80;1660007;86;21159;-80
2021/12/08 06:09:56;;;;;;;49.48;24.37;;;;;;;-5.77;75.79;101285.07;1674290;85;21121;-72
2021/12/08 06:12:23;;;;;;;47.45;23.22;;;;;;;-5.79;75.75;101287.86;1682980;84;21766;-72
2021/12/08 06:14:54;;;;;;;48.05;27.05;;;;;;;-5.79;75.78;101286.58;1682705;85;21772;-73
2021/12/08 06:17:19;;;;;;;44.58;24.40;;;;;;;-5.87;75.71;101290.57;1682372;85;21098;-72
2021/12/08 06:19:47;;;;;;;44.18;22.55;;;;;;;-5.85;75.81;101284.32;1653502;85;21591;-73
2021/12/08 06:22:15;;;;;;;45.05;23.98;;;;;;;-5.84;75.93;101289.95;1683271;85;21078;-72
2021/12/08 06:24:43;;;;;;;45.33;23.45;;;;;;;-5.81;75.98;101284.25;1683295;85;21117;-73
2021/12/08 06:27:10;;;;;;;43.68;23.42;;;;;;;-5.92;75.86;101270.36;1683178;85;21790;-72
2021/12/08 06:29:40;;;;;;;43.63;23.35;;;;;;;-5.80;75.97;101293.73;1683348;85;21607;-74
2021/12/08 06:32:08;;;;;;;41.70;22.87;;;;;;;-5.76;75.98;101291.98;1683274;85;21580;-73
2021/12/08 06:34:35;;;;;;;42.15;22.50;;;;;;;-5.75;75.99;101293.42;1679399;84;21742;-73
2021/12/08 06:37:12;;;;;;;38.48;22.25;;;;;;;-5.74;75.86;101295.64;1678714;85;21173;-73
2021/12/08 06:39:47;;;;;;;45.08;22.67;;;;;;;-5.76;75.83;101297.12;1693104;84;21819;-72
2021/12/08 06:42:18;;;;;;;44.13;22.65;;;;;;;-5.73;76.05;101308.58;1693046;84;21670;-73
2021/12/08 06:44:47;;;;;;;44.75;21.60;;;;;;;-5.67;76.07;101307.00;1693570;84;21101;-73
2021/12/08 06:47:17;;;;;;;39.15;21.10;;;;;;;-5.67;75.95;101310.49;1693533;84;21106;-72
2021/12/08 06:49:45;;;;;;;36.45;20.27;;;;;;;-5.64;75.95;101303.47;1693312;84;21144;-73
2021/12/08 06:52:17;;;;;;;35.35;21.07;;;;;;;-5.63;75.93;101306.58;1693467;84;21781;-72
2021/12/08 06:54:49;;;;;;;56.20;22.70;;;;;;;-5.63;75.90;101313.34;1694130;84;21117;-73
2021/12/08 06:57:24;;;;;;;40.78;21.93;;;;;;;-5.62;75.86;101310.93;1778839;80;21039;-73
2021/12/08 07:00:04;;;;;;;41.60;24.05;;;;;;;-5.61;75.94;101311.47;1778332;80;21541;-73
2021/12/08 07:02:51;;;;;;;46.10;24.87;;;;;;;-5.55;76.02;101314.63;1776941;80;21051;-73
2021/12/08 07:07:34;;;;;;;37.58;21.52;;;;;;;-5.46;75.96;101314.63;1778093;80;21000;-73
2021/12/08 07:10:19;;;;;;;38.95;21.30;;;;;;;-5.45;75.88;101320.27;1778196;80;21638;-73
2021/12/08 07:12:46;;;;;;;41.53;22.73;;;;;;;-5.43;75.86;101325.56;1777826;80;21066;-73
2021/12/08 07:15:27;;;;;;;38.85;21.37;;;;;;;-5.43;75.91;101319.14;1778208;80;21691;-72
2021/12/08 07:17:59;;;;;;;39.40;22.77;;;;;;;-5.38;75.93;101322.69;1751949;80;21746;-73
2021/12/08 07:20:42;;;;;;;39.03;22.82;;;;;;;-5.37;75.86;101321.91;1778075;80;21094;-73
2021/12/08 07:23:01;;;;;;;40.35;22.82;;;;;;;-5.34;75.80;101329.92;1776487;80;21071;-73
2021/12/08 07:25:33;;;;;;;42.90;23.25;;;;;;;-5.31;75.83;101329.30;1777973;80;21142;-73
2021/12/08 07:27:57;;;;;;;48.20;23.90;;;;;;;-5.32;75.74;101332.64;1777449;80;21540;-73
2021/12/08 07:30:32;;;;;;;41.85;24.02;;;;;;;-5.31;75.78;101334.08;1778119;80;21691;-73
2021/12/08 07:32:59;;;;;;;40.70;24.85;;;;;;;-5.30;75.81;101324.33;1777564;80;21592;-73
2021/12/08 07:35:39;;;;;;;41.37;24.47;;;;;;;-5.29;75.76;101321.02;1776895;80;21070;-73
2021/12/08 07:38:07;;;;;;;38.90;23.32;;;;;;;-5.29;75.75;101320.12;1776747;80;21035;-73
2021/12/08 07:40:41;;;;;;;34.33;21.25;;;;;;;-5.31;75.66;101317.40;1777874;80;21066;-73
2021/12/08 07:43:12;;;;;;;35.78;21.17;;;;;;;-5.33;75.63;101315.06;1778583;80;21683;-73
2021/12/08 07:46:02;;;;;;;36.68;21.37;;;;;;;-5.33;75.61;101307.72;1778397;80;21070;-73
2021/12/08 07:48:26;;;;;;;39.30;21.20;;;;;;;-5.38;75.41;101304.73;1776967;80;21556;-73
2021/12/08 07:50:59;;;;;;;36.38;20.32;;;;;;;-5.45;75.33;101310.02;1778239;80;21349;-73
2021/12/08 07:53:26;;;;;;;39.98;23.05;;;;;;;-5.51;75.27;101299.16;1778274;80;21093;-72
2021/12/08 07:55:58;;;;;;;36.50;20.72;;;;;;;-5.57;75.24;101299.47;1778181;80;21699;-75
2021/12/08 07:58:22;;;;;;;34.85;20.92;;;;;;;-5.64;75.16;101297.44;1777897;80;21117;-75
2021/12/08 08:00:57;;;;;;;38.85;22.48;;;;;;;-5.73;75.19;101294.48;1778074;80;22337;-75
2021/12/08 08:03:24;;;;;;;37.38;21.80;;;;;;;-5.77;75.30;101291.09;1777250;80;21078;-75
2021/12/08 08:05:52;;;;;;;31.77;19.20;;;;;;;-5.77;75.32;101291.48;1778269;80;21003;-75
2021/12/08 08:08:20;;;;;;;37.40;21.85;;;;;;;-5.81;75.26;101301.81;1778383;80;21780;-75
2021/12/08 08:10:54;;;;;;;34.60;20.43;;;;;;;-5.84;75.22;101296.36;1778151;80;21038;-75
2021/12/08 08:13:21;;;;;;;36.63;21.75;;;;;;;-5.87;75.26;101301.21;1778320;80;21062;-75
2021/12/08 08:15:52;;;;;;;37.75;22.20;;;;;;;-5.91;75.22;101294.87;1778180;80;21110;-75
2021/12/08 08:18:24;;;;;;;49.55;25.60;;;;;;;-5.93;75.28;101294.17;1777997;80;21067;-73
2021/12/08 08:20:51;;;;;;;41.95;23.50;;;;;;;-5.93;75.39;101298.02;1777496;80;21805;-73
2021/12/08 08:23:20;;;;;;;53.05;26.62;;;;;;;-5.90;75.39;101299.23;1777956;80;21160;-73
2021/12/08 08:25:47;;;;;;;54.13;28.90;;;;;;;-5.97;75.49;101283.12;1778105;80;21014;-73
2021/12/08 08:28:16;;;;;;;47.55;26.95;;;;;;;-5.80;75.51;101296.30;1778080;80;21074;-73
2021/12/08 08:30:47;;;;;;;51.60;28.80;;;;;;;-5.77;75.39;101292.38;1778029;80;21114;-73
2021/12/08 08:33:14;;;;;;;56.35;31.12;;;;;;;-5.81;75.09;101295.40;1777844;80;21764;-73
2021/12/08 08:35:45;;;;;;;59.08;30.27;;;;;;;-5.86;75.08;101303.94;1776438;80;21089;-73
2021/12/08 08:38:17;;;;;;;58.92;31.40;;;;;;;-5.85;75.20;101299.70;1774533;80;21797;-73
2021/12/08 08:40:51;;;;;;;56.65;31.33;;;;;;;-5.89;74.95;101299.77;1774888;80;21341;-75
2021/12/08 08:43:18;;;;;;;61.25;32.58;;;;;;;-5.91;75.07;101293.98;1775261;80;21616;-73
2021/12/08 08:45:55;;;;;;;59.55;32.67;;;;;;;-5.84;75.11;101298.03;1775487;80;21795;-73
2021/12/08 08:48:32;;;;;;;60.28;33.80;;;;;;;-5.84;75.05;101293.80;1775350;80;20980;-73
2021/12/08 08:51:04;;;;;;;58.92;32.20;;;;;;;-5.86;74.91;101298.80;1775576;80;21060;-73
2021/12/08 08:53:33;;;;;;;65.50;34.60;;;;;;;-5.91;74.80;101300.39;1773966;80;21198;-73
2021/12/08 08:56:13;;;;;;;66.28;34.85;;;;;;;-5.96;74.76;101297.77;1775039;80;21070;-73
2021/12/08 08:58:44;;;;;;;68.05;36.70;;;;;;;-6.01;74.75;101303.70;1748056;80;21609;-73
2021/12/08 09:01:18;;;;;;;67.85;36.83;;;;;;;-6.06;74.69;101307.10;1775640;80;21668;-73
2021/12/08 09:03:49;;;;;;;68.52;36.50;;;;;;;-6.09;74.80;101295.64;1775847;80;21710;-73
2021/12/08 09:06:21;;;;;;;67.22;33.78;;;;;;;-6.07;74.88;101299.26;1774958;80;21122;-73
2021/12/08 09:08:47;;;;;;;62.27;32.83;;;;;;;-6.06;74.91;101297.23;1775573;80;22234;-73
2021/12/08 09:11:25;;;;;;;63.50;32.20;;;;;;;-6.00;74.92;101301.69;1775519;80;21731;-73
2021/12/08 09:14:05;;;;;;;72.25;36.88;;;;;;;-6.02;74.83;101295.50;1774419;80;21623;-73
2021/12/08 09:16:53;;;;;;;71.45;37.45;;;;;;;-6.04;74.68;101302.48;1775714;80;21573;-73
2021/12/08 09:19:27;;;;;;;71.30;36.30;;;;;;;-6.06;74.76;101286.60;1775047;80;21069;-73
2021/12/08 09:22:07;;;;;;;74.35;36.13;;;;;;;-6.06;74.70;101281.86;1775579;80;21509;-73
2021/12/08 09:24:47;;;;;;;80.97;38.90;;;;;;;-6.04;74.81;101285.48;1775447;80;21726;-73
2021/12/08 09:27:18;;;;;;;72.32;35.78;;;;;;;-6.03;74.83;101280.86;1775564;80;21380;-73
2021/12/08 09:29:57;;;;;;;68.83;35.38;;;;;;;-6.02;74.68;101283.97;1775653;80;21070;-73
2021/12/08 09:32:40;;;;;;;75.97;38.42;;;;;;;-6.06;74.58;101280.58;1775693;80;21978;-73
2021/12/08 09:35:16;;;;;;;74.92;36.17;;;;;;;-6.09;74.40;101288.84;1748819;80;21077;-72
2021/12/08 09:37:48;;;;;;;73.45;38.55;;;;;;;-6.06;74.50;101288.27;1767963;81;21983;-75
2021/12/08 09:40:22;;;;;;;78.40;39.05;;;;;;;-6.03;74.36;101287.66;1769361;81;21072;-75
2021/12/08 09:42:53;;;;;;;80.17;40.50;;;;;;;-6.07;74.24;101284.78;1769747;81;21507;-75
2021/12/08 09:45:28;;;;;;;75.70;39.42;;;;;;;-6.06;74.17;101278.91;1741559;81;21108;-75
2021/12/08 09:47:57;;;;;;;74.80;40.85;;;;;;;-6.02;74.21;101277.56;1788025;80;21120;-75
2021/12/08 09:50:23;;;;;;;75.97;36.75;;;;;;;-6.04;74.08;101276.86;1775907;80;21741;-75
2021/12/08 09:52:50;;;;;;;81.82;40.70;;;;;;;-6.09;74.00;101277.31;1769558;81;21057;-75
2021/12/08 09:55:17;;;;;;;80.05;40.30;;;;;;;-6.11;73.93;101267.30;1788386;80;20979;-75
2021/12/08 09:57:45;;;;;;;76.22;38.02;;;;;;;-6.13;73.90;101270.08;1775581;80;21059;-75
2021/12/08 10:00:17;;;;;;;79.70;41.15;;;;;;;-6.07;74.14;101265.55;1769480;81;21284;-72
2021/12/08 10:02:44;;;;;;;73.67;37.88;;;;;;;-5.99;74.05;101258.62;1787910;80;22590;-72
2021/12/08 10:05:14;;;;;;;78.28;40.40;;;;;;;-6.01;73.77;101265.25;1775598;80;21636;-72
2021/12/08 10:07:44;;;;;;;74.77;39.00;;;;;;;-6.03;73.77;101266.77;1769787;81;21528;-72
2021/12/08 10:10:13;;;;;;;77.40;40.03;;;;;;;-6.02;73.84;101254.84;1768581;81;21077;-72
2021/12/08 10:12:40;;;;;;;86.35;41.80;;;;;;;-5.97;73.88;101253.27;1788202;80;21628;-72
2021/12/08 10:15:11;;;;;;;70.47;35.90;;;;;;;-5.93;73.86;101257.00;1775471;80;21741;-73
2021/12/08 10:17:38;;;;;;;70.03;38.53;;;;;;;-5.94;73.78;101249.70;1754985;81;21069;-73
2021/12/08 10:20:21;;;;;;;75.97;38.83;;;;;;;-5.92;73.70;101251.14;1788095;80;21070;-73
2021/12/08 10:23:16;;;;;;;73.10;38.73;;;;;;;-6.01;73.58;101249.88;1786966;80;21163;-73
2021/12/08 10:25:56;;;;;;;79.17;39.63;;;;;;;-6.07;73.50;101246.72;1775641;80;21133;-73
2021/12/08 10:28:42;;;;;;;73.05;36.88;;;;;;;-6.06;73.79;101239.58;1769432;81;26690;-74
2021/12/08 10:31:29;;;;;;;74.80;37.30;;;;;;;-5.97;73.82;101242.12;1788165;80;21090;-73
2021/12/08 10:34:23;;;;;;;63.02;32.28;;;;;;;-5.94;73.77;101239.83;1641700;85;21084;-73
2021/12/08 10:36:53;;;;;;;67.72;34.53;;;;;;;-5.96;73.68;101237.15;1639136;86;21166;-73
2021/12/08 10:39:35;;;;;;;69.60;35.20;;;;;;;-5.97;73.53;101234.42;1659081;86;21113;-74
2021/12/08 10:42:17;;;;;;;68.60;34.88;;;;;;;-5.94;73.58;101235.98;1659336;86;21819;-73
2021/12/08 10:45:21;;;;;;;66.72;32.98;;;;;;;-6.00;73.27;101237.99;1659303;86;21100;-73
2021/12/08 10:47:55;;;;;;;58.65;31.02;;;;;;;-6.11;73.04;101230.13;1656880;86;21102;-73
2021/12/08 10:56:01;;;;;;;63.55;32.78;;;;;;;-6.20;73.13;101233.06;1640196;86;21959;-73
2021/12/08 10:58:31;;;;;;;65.62;33.80;;;;;;;-6.17;73.07;101233.77;1659485;86;21248;-73
2021/12/08 11:01:01;;;;;;;72.65;35.90;;;;;;;-6.16;73.13;101227.48;1659500;86;21109;-73
2021/12/08 11:03:36;;;;;;;68.52;36.08;;;;;;;-6.10;73.21;101228.11;1658684;86;21081;-73
2021/12/08 11:06:04;;;;;;;62.55;33.20;;;;;;;-6.04;73.12;101229.45;1659508;86;21189;-73
2021/12/08 11:08:41;;;;;;;69.05;36.38;;;;;;;-6.06;72.98;101217.80;1659536;86;21851;-73
2021/12/08 11:11:20;;;;;;;66.90;34.78;;;;;;;-6.04;72.94;101216.28;1713514;81;21062;-73
2021/12/08 11:13:56;;;;;;;66.20;34.25;;;;;;;-6.06;72.91;101211.38;1744983;82;21070;-73
2021/12/08 11:16:36;;;;;;;63.00;34.55;;;;;;;-6.04;72.86;101206.37;1725645;83;21125;-73
2021/12/08 11:19:13;;;;;;;69.58;36.98;;;;;;;-6.07;72.78;101207.89;1745093;82;21101;-73
2021/12/08 11:21:46;;;;;;;60.28;32.78;;;;;;;-6.09;72.80;101206.84;1710770;82;21354;-74
2021/12/08 11:24:33;;;;;;;67.37;35.80;;;;;;;-6.10;72.72;101197.36;1757265;81;21599;-73
2021/12/08 11:26:51;;;;;;;72.17;37.38;;;;;;;-6.08;72.71;101195.85;1723191;83;21153;-74
2021/12/08 11:29:25;;;;;;;62.67;33.80;;;;;;;-6.09;72.66;101191.85;1744813;82;21138;-73
2021/12/08 11:31:59;;;;;;;64.53;31.55;;;;;;;-6.06;72.93;101198.19;1725020;82;21129;-73
2021/12/08 11:34:33;;;;;;;61.33;32.85;;;;;;;-6.00;72.79;101186.73;1743969;82;22545;-74
2021/12/08 11:37:08;;;;;;;60.20;32.38;;;;;;;-6.06;72.59;101193.45;1737529;81;21078;-74
2021/12/08 11:39:42;;;;;;;55.30;29.30;;;;;;;-6.03;72.77;101195.00;1751132;81;21058;-73
2021/12/08 11:42:16;;;;;;;56.15;29.18;;;;;;;-5.93;72.86;101190.36;1734401;82;21120;-73
2021/12/08 11:44:50;;;;;;;58.75;31.25;;;;;;;-5.90;72.83;101180.02;1779954;80;21121;-73
2021/12/08 11:47:25;;;;;;;60.08;33.23;;;;;;;-5.79;72.93;101183.64;1779708;80;21778;-73
2021/12/08 11:49:56;;;;;;;64.45;34.18;;;;;;;-5.66;72.94;101178.94;1780495;80;21346;-73
2021/12/08 11:52:29;;;;;;;67.08;33.63;;;;;;;-5.61;72.76;101172.05;1780820;80;21190;-73
2021/12/08 11:55:01;;;;;;;68.12;35.52;;;;;;;-5.57;72.75;101171.62;1781268;79;21066;-73
2021/12/08 11:57:46;;;;;;;62.30;33.38;;;;;;;-5.49;72.90;101174.52;1781103;80;21058;-73
2021/12/08 12:00:19;;;;;;;66.20;34.90;;;;;;;-5.37;72.82;101185.03;1779600;80;22653;-73
2021/12/08 12:02:56;;;;;;;59.58;31.45;;;;;;;-5.24;72.80;101187.11;1781043;80;21003;-73
2021/12/08 12:05:34;;;;;;;54.48;30.45;;;;;;;-5.14;72.70;101183.39;1780861;80;21054;-73